sensor_id;sensor_type;location;lat;lon;timestamp;P1;durP1;ratioP1;P2;durP2;ratioP2
68178;SDS011;54998;42.656;23.382;2022-07-29T00:00:07;11.13;;;7.35;;
68178;SDS011;54998;42.656;23.382;2022-07-29T00:02:34;10.82;;;7.57;;
68178;SDS011;54998;42.656;23.382;2022-07-29T00:04:59;11.13;;;7.57;;
68178;SDS011;54998;42.656;23.382;2022-07-29T00:07:25;11.88;;;8.02;;
68178;SDS011;54998;42.656;23.382;2022-07-29T00:09:51;12.05;;;8.05;;
68178;SDS011;54998;42.656;23.382;2022-07-29T00:12:16;11.38;;;8.15;;
68178;SDS011;54998;42.656;23.382;2022-07-29T00:14:42;12.55;;;8.43;;
68178;SDS011;54998;42.656;23.382;2022-07-29T00:17:08;10.85;;;8.20;;
68178;SDS011;54998;42.656;23.382;2022-07-29T00:19:33;12.23;;;7.65;;
68178;SDS011;54998;42.656;23.382;2022-07-29T00:21:59;11.70;;;7.93;;
68178;SDS011;54998;42.656;23.382;2022-07-29T00:24:25;11.15;;;7.88;;
68178;SDS011;54998;42.656;23.382;2022-07-29T00:26:50;12.13;;;8.65;;
68178;SDS011;54998;42.656;23.382;2022-07-29T00:29:16;12.50;;;8.35;;
68178;SDS011;54998;42.656;23.382;2022-07-29T00:31:41;12.52;;;8.05;;
68178;SDS011;54998;42.656;23.382;2022-07-29T00:34:06;11.95;;;7.90;;
68178;SDS011;54998;42.656;23.382;2022-07-29T00:36:52;10.55;;;7.47;;
68178;SDS011;54998;42.656;23.382;2022-07-29T00:39:17;13.07;;;8.65;;
68178;SDS011;54998;42.656;23.382;2022-07-29T00:41:43;10.88;;;7.68;;
68178;SDS011;54998;42.656;23.382;2022-07-29T00:44:08;10.93;;;8.35;;
68178;SDS011;54998;42.656;23.382;2022-07-29T00:46:33;11.52;;;8.15;;
68178;SDS011;54998;42.656;23.382;2022-07-29T00:48:59;11.50;;;7.72;;
68178;SDS011;54998;42.656;23.382;2022-07-29T00:51:25;13.10;;;8.35;;
68178;SDS011;54998;42.656;23.382;2022-07-29T00:56:17;12.73;;;8.48;;
68178;SDS011;54998;42.656;23.382;2022-07-29T00:58:43;13.57;;;8.95;;
68178;SDS011;54998;42.656;23.382;2022-07-29T01:01:10;13.10;;;8.18;;
68178;SDS011;54998;42.656;23.382;2022-07-29T01:03:35;12.93;;;8.98;;
68178;SDS011;54998;42.656;23.382;2022-07-29T01:06:00;12.00;;;8.75;;
68178;SDS011;54998;42.656;23.382;2022-07-29T01:08:26;14.93;;;9.18;;
68178;SDS011;54998;42.656;23.382;2022-07-29T01:10:52;13.85;;;8.73;;
68178;SDS011;54998;42.656;23.382;2022-07-29T01:13:18;11.80;;;8.70;;
68178;SDS011;54998;42.656;23.382;2022-07-29T01:15:57;13.30;;;8.80;;
68178;SDS011;54998;42.656;23.382;2022-07-29T01:18:38;13.10;;;9.10;;
68178;SDS011;54998;42.656;23.382;2022-07-29T01:21:21;13.20;;;9.27;;
68178;SDS011;54998;42.656;23.382;2022-07-29T01:24:08;13.15;;;9.77;;
68178;SDS011;54998;42.656;23.382;2022-07-29T01:32:06;13.52;;;9.40;;
68178;SDS011;54998;42.656;23.382;2022-07-29T01:34:43;16.88;;;9.98;;
68178;SDS011;54998;42.656;23.382;2022-07-29T01:37:22;15.80;;;9.80;;
68178;SDS011;54998;42.656;23.382;2022-07-29T01:39:50;13.05;;;9.25;;
68178;SDS011;54998;42.656;23.382;2022-07-29T01:42:35;15.25;;;9.85;;
68178;SDS011;54998;42.656;23.382;2022-07-29T01:50:34;17.33;;;11.57;;
68178;SDS011;54998;42.656;23.382;2022-07-29T01:53:04;20.70;;;12.73;;
68178;SDS011;54998;42.656;23.382;2022-07-29T01:55:38;17.90;;;10.38;;
68178;SDS011;54998;42.656;23.382;2022-07-29T01:58:05;14.80;;;10.05;;
68178;SDS011;54998;42.656;23.382;2022-07-29T02:00:33;15.75;;;9.32;;
68178;SDS011;54998;42.656;23.382;2022-07-29T02:03:01;14.25;;;9.55;;
68178;SDS011;54998;42.656;23.382;2022-07-29T02:05:30;13.15;;;9.10;;
68178;SDS011;54998;42.656;23.382;2022-07-29T02:07:59;12.95;;;9.15;;
68178;SDS011;54998;42.656;23.382;2022-07-29T02:10:27;11.77;;;8.27;;
68178;SDS011;54998;42.656;23.382;2022-07-29T02:12:55;11.15;;;7.88;;
68178;SDS011;54998;42.656;23.382;2022-07-29T02:15:24;11.23;;;7.78;;
68178;SDS011;54998;42.656;23.382;2022-07-29T02:17:55;11.68;;;7.80;;
68178;SDS011;54998;42.656;23.382;2022-07-29T02:20:25;12.20;;;7.82;;
68178;SDS011;54998;42.656;23.382;2022-07-29T02:22:52;9.10;;;7.45;;
68178;SDS011;54998;42.656;23.382;2022-07-29T02:25:18;13.07;;;7.63;;
68178;SDS011;54998;42.656;23.382;2022-07-29T02:27:47;10.32;;;7.60;;
68178;SDS011;54998;42.656;23.382;2022-07-29T02:30:15;12.05;;;7.70;;
68178;SDS011;54998;42.656;23.382;2022-07-29T02:32:42;10.40;;;7.28;;
68178;SDS011;54998;42.656;23.382;2022-07-29T02:35:10;13.07;;;8.05;;
68178;SDS011;54998;42.656;23.382;2022-07-29T02:37:39;14.63;;;7.65;;
68178;SDS011;54998;42.656;23.382;2022-07-29T02:40:06;10.65;;;7.07;;
68178;SDS011;54998;42.656;23.382;2022-07-29T02:42:36;12.25;;;7.35;;
68178;SDS011;54998;42.656;23.382;2022-07-29T02:45:04;10.23;;;6.53;;
68178;SDS011;54998;42.656;23.382;2022-07-29T02:47:34;10.45;;;6.80;;
68178;SDS011;54998;42.656;23.382;2022-07-29T02:50:03;9.68;;;6.40;;
68178;SDS011;54998;42.656;23.382;2022-07-29T02:52:41;9.82;;;6.68;;
68178;SDS011;54998;42.656;23.382;2022-07-29T02:55:12;10.70;;;7.00;;
68178;SDS011;54998;42.656;23.382;2022-07-29T02:57:44;10.00;;;7.20;;
68178;SDS011;54998;42.656;23.382;2022-07-29T03:00:12;10.90;;;7.05;;
68178;SDS011;54998;42.656;23.382;2022-07-29T03:02:42;12.38;;;7.50;;
68178;SDS011;54998;42.656;23.382;2022-07-29T03:05:11;11.80;;;7.53;;
68178;SDS011;54998;42.656;23.382;2022-07-29T03:07:41;11.02;;;8.02;;
68178;SDS011;54998;42.656;23.382;2022-07-29T03:10:10;12.10;;;7.97;;
68178;SDS011;54998;42.656;23.382;2022-07-29T03:12:37;13.73;;;8.43;;
68178;SDS011;54998;42.656;23.382;2022-07-29T03:15:06;12.35;;;9.02;;
68178;SDS011;54998;42.656;23.382;2022-07-29T03:52:08;18.60;;;12.18;;
68178;SDS011;54998;42.656;23.382;2022-07-29T03:54:34;18.88;;;12.50;;
68178;SDS011;54998;42.656;23.382;2022-07-29T03:57:03;21.23;;;13.25;;
68178;SDS011;54998;42.656;23.382;2022-07-29T03:59:31;19.92;;;13.18;;
68178;SDS011;54998;42.656;23.382;2022-07-29T04:02:00;20.50;;;12.25;;
68178;SDS011;54998;42.656;23.382;2022-07-29T04:04:27;22.63;;;12.48;;
68178;SDS011;54998;42.656;23.382;2022-07-29T04:06:53;18.17;;;11.70;;
68178;SDS011;54998;42.656;23.382;2022-07-29T04:09:18;16.20;;;11.35;;
68178;SDS011;54998;42.656;23.382;2022-07-29T04:11:44;16.08;;;11.35;;
68178;SDS011;54998;42.656;23.382;2022-07-29T04:14:10;16.70;;;11.07;;
68178;SDS011;54998;42.656;23.382;2022-07-29T04:16:35;15.80;;;10.57;;
68178;SDS011;54998;42.656;23.382;2022-07-29T04:19:01;15.35;;;9.50;;
68178;SDS011;54998;42.656;23.382;2022-07-29T04:21:27;19.08;;;10.20;;
68178;SDS011;54998;42.656;23.382;2022-07-29T04:23:52;18.88;;;11.15;;
68178;SDS011;54998;42.656;23.382;2022-07-29T04:26:18;16.38;;;9.63;;
68178;SDS011;54998;42.656;23.382;2022-07-29T04:31:10;16.48;;;8.35;;
68178;SDS011;54998;42.656;23.382;2022-07-29T04:33:36;12.25;;;8.32;;
68178;SDS011;54998;42.656;23.382;2022-07-29T04:36:02;11.75;;;7.22;;
68178;SDS011;54998;42.656;23.382;2022-07-29T04:38:28;10.55;;;7.30;;
68178;SDS011;54998;42.656;23.382;2022-07-29T04:40:53;9.63;;;7.55;;
68178;SDS011;54998;42.656;23.382;2022-07-29T04:43:19;10.05;;;6.97;;
68178;SDS011;54998;42.656;23.382;2022-07-29T04:45:44;10.90;;;6.72;;
68178;SDS011;54998;42.656;23.382;2022-07-29T04:48:10;12.57;;;6.53;;
68178;SDS011;54998;42.656;23.382;2022-07-29T04:50:37;8.93;;;6.80;;
68178;SDS011;54998;42.656;23.382;2022-07-29T04:53:03;10.48;;;6.75;;
68178;SDS011;54998;42.656;23.382;2022-07-29T05:10:53;11.05;;;7.78;;
68178;SDS011;54998;42.656;23.382;2022-07-29T05:13:19;12.15;;;8.00;;
68178;SDS011;54998;42.656;23.382;2022-07-29T05:15:44;11.27;;;7.57;;
68178;SDS011;54998;42.656;23.382;2022-07-29T05:18:10;11.20;;;7.22;;
68178;SDS011;54998;42.656;23.382;2022-07-29T05:20:35;12.95;;;7.65;;
68178;SDS011;54998;42.656;23.382;2022-07-29T05:23:01;13.10;;;7.43;;
68178;SDS011;54998;42.656;23.382;2022-07-29T05:25:28;10.43;;;7.18;;
68178;SDS011;54998;42.656;23.382;2022-07-29T05:27:54;10.02;;;7.15;;
68178;SDS011;54998;42.656;23.382;2022-07-29T05:30:20;9.30;;;7.40;;
68178;SDS011;54998;42.656;23.382;2022-07-29T05:32:46;16.63;;;7.80;;
68178;SDS011;54998;42.656;23.382;2022-07-29T05:35:12;10.30;;;7.03;;
68178;SDS011;54998;42.656;23.382;2022-07-29T05:37:39;12.35;;;7.70;;
68178;SDS011;54998;42.656;23.382;2022-07-29T05:40:05;11.52;;;7.28;;
68178;SDS011;54998;42.656;23.382;2022-07-29T05:42:31;9.77;;;6.55;;
68178;SDS011;54998;42.656;23.382;2022-07-29T05:44:57;9.68;;;6.78;;
68178;SDS011;54998;42.656;23.382;2022-07-29T05:47:23;9.35;;;6.78;;
68178;SDS011;54998;42.656;23.382;2022-07-29T05:52:15;9.05;;;7.07;;
68178;SDS011;54998;42.656;23.382;2022-07-29T05:54:41;11.00;;;6.75;;
68178;SDS011;54998;42.656;23.382;2022-07-29T05:57:06;7.68;;;6.22;;
68178;SDS011;54998;42.656;23.382;2022-07-29T05:59:35;7.00;;;5.93;;
68178;SDS011;54998;42.656;23.382;2022-07-29T06:02:01;10.10;;;5.95;;
68178;SDS011;54998;42.656;23.382;2022-07-29T06:04:26;8.60;;;6.63;;
68178;SDS011;54998;42.656;23.382;2022-07-29T06:06:52;7.78;;;6.57;;
68178;SDS011;54998;42.656;23.382;2022-07-29T06:09:17;7.85;;;6.57;;
68178;SDS011;54998;42.656;23.382;2022-07-29T06:11:43;8.70;;;6.55;;
68178;SDS011;54998;42.656;23.382;2022-07-29T06:14:09;9.57;;;6.57;;
68178;SDS011;54998;42.656;23.382;2022-07-29T06:18:59;9.60;;;6.27;;
68178;SDS011;54998;42.656;23.382;2022-07-29T06:23:50;9.77;;;6.50;;
68178;SDS011;54998;42.656;23.382;2022-07-29T06:28:41;8.93;;;7.78;;
68178;SDS011;54998;42.656;23.382;2022-07-29T06:33:32;9.30;;;6.57;;
68178;SDS011;54998;42.656;23.382;2022-07-29T06:35:58;9.48;;;7.32;;
68178;SDS011;54998;42.656;23.382;2022-07-29T06:38:24;12.27;;;6.95;;
68178;SDS011;54998;42.656;23.382;2022-07-29T06:46:03;9.65;;;7.03;;
68178;SDS011;54998;42.656;23.382;2022-07-29T06:48:30;11.20;;;6.03;;
68178;SDS011;54998;42.656;23.382;2022-07-29T06:53:21;7.35;;;5.78;;
68178;SDS011;54998;42.656;23.382;2022-07-29T06:58:12;6.30;;;5.70;;
68178;SDS011;54998;42.656;23.382;2022-07-29T07:00:40;8.52;;;6.00;;
68178;SDS011;54998;42.656;23.382;2022-07-29T07:03:07;8.82;;;6.32;;
68178;SDS011;54998;42.656;23.382;2022-07-29T07:07:58;8.85;;;5.88;;
68178;SDS011;54998;42.656;23.382;2022-07-29T07:12:49;6.20;;;5.00;;
68178;SDS011;54998;42.656;23.382;2022-07-29T07:15:14;5.63;;;5.03;;
68178;SDS011;54998;42.656;23.382;2022-07-29T07:20:05;6.07;;;4.72;;
68178;SDS011;54998;42.656;23.382;2022-07-29T07:24:56;5.90;;;5.30;;
68178;SDS011;54998;42.656;23.382;2022-07-29T07:29:47;4.45;;;3.97;;
68178;SDS011;54998;42.656;23.382;2022-07-29T07:32:13;7.22;;;4.65;;
68178;SDS011;54998;42.656;23.382;2022-07-29T07:34:41;8.38;;;4.35;;
68178;SDS011;54998;42.656;23.382;2022-07-29T07:39:32;5.35;;;4.18;;
68178;SDS011;54998;42.656;23.382;2022-07-29T07:44:23;6.30;;;4.67;;
68178;SDS011;54998;42.656;23.382;2022-07-29T07:49:13;6.88;;;4.57;;
68178;SDS011;54998;42.656;23.382;2022-07-29T07:54:04;5.05;;;3.95;;
68178;SDS011;54998;42.656;23.382;2022-07-29T07:58:55;5.13;;;4.38;;
68178;SDS011;54998;42.656;23.382;2022-07-29T08:01:20;5.15;;;4.43;;
68178;SDS011;54998;42.656;23.382;2022-07-29T08:03:48;4.72;;;3.72;;
68178;SDS011;54998;42.656;23.382;2022-07-29T08:06:14;4.90;;;4.00;;
68178;SDS011;54998;42.656;23.382;2022-07-29T08:08:40;4.60;;;4.05;;
68178;SDS011;54998;42.656;23.382;2022-07-29T08:13:31;4.90;;;3.55;;
68178;SDS011;54998;42.656;23.382;2022-07-29T08:18:26;5.88;;;4.05;;
68178;SDS011;54998;42.656;23.382;2022-07-29T08:20:53;7.80;;;4.35;;
68178;SDS011;54998;42.656;23.382;2022-07-29T08:23:19;4.30;;;3.90;;
68178;SDS011;54998;42.656;23.382;2022-07-29T08:25:44;5.60;;;3.67;;
68178;SDS011;54998;42.656;23.382;2022-07-29T08:28:10;4.22;;;3.75;;
68178;SDS011;54998;42.656;23.382;2022-07-29T08:30:35;4.03;;;3.70;;
68178;SDS011;54998;42.656;23.382;2022-07-29T08:33:01;4.70;;;3.63;;
68178;SDS011;54998;42.656;23.382;2022-07-29T08:35:26;4.18;;;3.33;;
68178;SDS011;54998;42.656;23.382;2022-07-29T08:37:53;4.85;;;3.58;;
68178;SDS011;54998;42.656;23.382;2022-07-29T08:40:19;4.00;;;3.22;;
68178;SDS011;54998;42.656;23.382;2022-07-29T08:42:45;3.90;;;3.58;;
68178;SDS011;54998;42.656;23.382;2022-07-29T08:45:11;3.90;;;3.47;;
68178;SDS011;54998;42.656;23.382;2022-07-29T08:55:16;4.97;;;3.88;;
68178;SDS011;54998;42.656;23.382;2022-07-29T08:57:42;5.75;;;3.63;;
68178;SDS011;54998;42.656;23.382;2022-07-29T09:00:08;5.88;;;3.83;;
68178;SDS011;54998;42.656;23.382;2022-07-29T09:02:38;4.53;;;4.03;;
68178;SDS011;54998;42.656;23.382;2022-07-29T09:05:06;4.20;;;3.80;;
68178;SDS011;54998;42.656;23.382;2022-07-29T09:07:32;5.07;;;4.07;;
68178;SDS011;54998;42.656;23.382;2022-07-29T09:09:59;4.63;;;3.30;;
68178;SDS011;54998;42.656;23.382;2022-07-29T09:12:25;5.90;;;3.83;;
68178;SDS011;54998;42.656;23.382;2022-07-29T09:14:50;4.32;;;3.92;;
68178;SDS011;54998;42.656;23.382;2022-07-29T09:17:16;5.43;;;4.10;;
68178;SDS011;54998;42.656;23.382;2022-07-29T09:19:42;5.35;;;4.15;;
68178;SDS011;54998;42.656;23.382;2022-07-29T09:53:10;4.90;;;4.40;;
68178;SDS011;54998;42.656;23.382;2022-07-29T10:13:48;5.35;;;4.00;;
68178;SDS011;54998;42.656;23.382;2022-07-29T10:16:14;5.43;;;4.43;;
68178;SDS011;54998;42.656;23.382;2022-07-29T10:18:41;5.32;;;4.15;;
68178;SDS011;54998;42.656;23.382;2022-07-29T10:21:08;5.10;;;4.38;;
68178;SDS011;54998;42.656;23.382;2022-07-29T10:23:35;6.15;;;3.97;;
68178;SDS011;54998;42.656;23.382;2022-07-29T10:26:02;5.38;;;4.10;;
68178;SDS011;54998;42.656;23.382;2022-07-29T10:28:31;7.03;;;4.35;;
68178;SDS011;54998;42.656;23.382;2022-07-29T10:31:01;4.22;;;3.83;;
68178;SDS011;54998;42.656;23.382;2022-07-29T10:36:15;5.05;;;3.90;;
68178;SDS011;54998;42.656;23.382;2022-07-29T10:39:17;5.40;;;4.05;;
68178;SDS011;54998;42.656;23.382;2022-07-29T10:44:27;6.03;;;4.32;;
68178;SDS011;54998;42.656;23.382;2022-07-29T10:46:53;4.57;;;4.13;;
68178;SDS011;54998;42.656;23.382;2022-07-29T10:49:20;4.35;;;3.95;;
68178;SDS011;54998;42.656;23.382;2022-07-29T10:52:04;4.20;;;3.60;;
68178;SDS011;54998;42.656;23.382;2022-07-29T10:59:37;5.00;;;4.07;;
68178;SDS011;54998;42.656;23.382;2022-07-29T11:15:01;4.15;;;3.75;;
68178;SDS011;54998;42.656;23.382;2022-07-29T11:23:21;5.28;;;4.45;;
68178;SDS011;54998;42.656;23.382;2022-07-29T11:47:24;6.28;;;4.60;;
68178;SDS011;54998;42.656;23.382;2022-07-29T11:49:51;5.78;;;4.45;;
68178;SDS011;54998;42.656;23.382;2022-07-29T11:52:17;5.50;;;4.97;;
68178;SDS011;54998;42.656;23.382;2022-07-29T11:54:44;5.00;;;4.00;;
68178;SDS011;54998;42.656;23.382;2022-07-29T11:57:12;5.43;;;4.80;;
68178;SDS011;54998;42.656;23.382;2022-07-29T11:59:41;5.97;;;5.38;;
68178;SDS011;54998;42.656;23.382;2022-07-29T12:02:08;6.35;;;4.97;;
68178;SDS011;54998;42.656;23.382;2022-07-29T12:04:34;6.70;;;5.38;;
68178;SDS011;54998;42.656;23.382;2022-07-29T12:07:12;5.10;;;4.60;;
68178;SDS011;54998;42.656;23.382;2022-07-29T12:09:38;6.50;;;5.15;;
68178;SDS011;54998;42.656;23.382;2022-07-29T12:14:29;6.47;;;5.50;;
68178;SDS011;54998;42.656;23.382;2022-07-29T12:16:57;6.65;;;5.30;;
68178;SDS011;54998;42.656;23.382;2022-07-29T12:19:23;6.15;;;4.97;;
68178;SDS011;54998;42.656;23.382;2022-07-29T12:24:15;6.25;;;5.60;;
68178;SDS011;54998;42.656;23.382;2022-07-29T12:29:20;6.20;;;5.60;;
68178;SDS011;54998;42.656;23.382;2022-07-29T12:34:12;7.40;;;6.18;;
68178;SDS011;54998;42.656;23.382;2022-07-29T12:36:39;6.25;;;5.57;;
68178;SDS011;54998;42.656;23.382;2022-07-29T12:39:06;8.57;;;5.47;;
68178;SDS011;54998;42.656;23.382;2022-07-29T12:41:34;6.07;;;5.53;;
68178;SDS011;54998;42.656;23.382;2022-07-29T12:46:25;5.70;;;5.15;;
68178;SDS011;54998;42.656;23.382;2022-07-29T12:48:52;7.68;;;5.57;;
68178;SDS011;54998;42.656;23.382;2022-07-29T12:51:27;5.97;;;5.40;;
68178;SDS011;54998;42.656;23.382;2022-07-29T12:54:10;6.85;;;5.15;;
68178;SDS011;54998;42.656;23.382;2022-07-29T12:56:38;6.80;;;6.05;;
68178;SDS011;54998;42.656;23.382;2022-07-29T12:59:12;6.00;;;5.15;;
68178;SDS011;54998;42.656;23.382;2022-07-29T13:01:38;5.97;;;5.22;;
68178;SDS011;54998;42.656;23.382;2022-07-29T13:06:36;5.88;;;4.95;;
68178;SDS011;54998;42.656;23.382;2022-07-29T13:13:55;8.33;;;5.53;;
68178;SDS011;54998;42.656;23.382;2022-07-29T13:16:20;6.65;;;5.65;;
68178;SDS011;54998;42.656;23.382;2022-07-29T13:18:46;6.75;;;5.88;;
68178;SDS011;54998;42.656;23.382;2022-07-29T13:23:38;6.57;;;4.47;;
68178;SDS011;54998;42.656;23.382;2022-07-29T13:28:33;7.00;;;4.80;;
68178;SDS011;54998;42.656;23.382;2022-07-29T13:30:59;5.03;;;4.53;;
68178;SDS011;54998;42.656;23.382;2022-07-29T13:33:24;6.20;;;4.50;;
68178;SDS011;54998;42.656;23.382;2022-07-29T13:35:50;5.28;;;4.78;;
68178;SDS011;54998;42.656;23.382;2022-07-29T13:38:15;6.03;;;5.30;;
68178;SDS011;54998;42.656;23.382;2022-07-29T13:40:41;7.30;;;4.90;;
68178;SDS011;54998;42.656;23.382;2022-07-29T13:43:10;6.88;;;4.97;;
68178;SDS011;54998;42.656;23.382;2022-07-29T13:45:36;6.40;;;4.93;;
68178;SDS011;54998;42.656;23.382;2022-07-29T13:48:02;6.18;;;4.93;;
68178;SDS011;54998;42.656;23.382;2022-07-29T13:50:28;5.82;;;4.65;;
68178;SDS011;54998;42.656;23.382;2022-07-29T13:52:53;7.22;;;5.15;;
68178;SDS011;54998;42.656;23.382;2022-07-29T13:55:19;7.50;;;6.03;;
68178;SDS011;54998;42.656;23.382;2022-07-29T13:57:44;6.00;;;4.78;;
68178;SDS011;54998;42.656;23.382;2022-07-29T14:00:11;6.82;;;5.28;;
68178;SDS011;54998;42.656;23.382;2022-07-29T14:02:37;5.82;;;5.10;;
68178;SDS011;54998;42.656;23.382;2022-07-29T14:05:04;5.85;;;5.25;;
68178;SDS011;54998;42.656;23.382;2022-07-29T14:07:30;6.72;;;5.20;;
68178;SDS011;54998;42.656;23.382;2022-07-29T14:09:56;7.40;;;5.03;;
68178;SDS011;54998;42.656;23.382;2022-07-29T14:12:22;6.05;;;5.20;;
68178;SDS011;54998;42.656;23.382;2022-07-29T15:00:09;7.38;;;6.07;;
68178;SDS011;54998;42.656;23.382;2022-07-29T15:02:35;5.88;;;5.20;;
68178;SDS011;54998;42.656;23.382;2022-07-29T15:05:01;7.80;;;5.68;;
68178;SDS011;54998;42.656;23.382;2022-07-29T15:07:27;6.53;;;5.63;;
68178;SDS011;54998;42.656;23.382;2022-07-29T15:09:52;7.25;;;5.60;;
68178;SDS011;54998;42.656;23.382;2022-07-29T15:12:18;6.10;;;5.45;;
68178;SDS011;54998;42.656;23.382;2022-07-29T15:14:43;5.22;;;4.70;;
68178;SDS011;54998;42.656;23.382;2022-07-29T15:17:09;6.40;;;5.40;;
68178;SDS011;54998;42.656;23.382;2022-07-29T15:19:34;5.80;;;4.93;;
68178;SDS011;54998;42.656;23.382;2022-07-29T15:22:00;5.50;;;4.95;;
68178;SDS011;54998;42.656;23.382;2022-07-29T15:24:26;5.93;;;5.00;;
68178;SDS011;54998;42.656;23.382;2022-07-29T15:26:51;6.65;;;4.85;;
68178;SDS011;54998;42.656;23.382;2022-07-29T15:29:17;5.85;;;4.68;;
68178;SDS011;54998;42.656;23.382;2022-07-29T15:31:42;5.88;;;5.10;;
68178;SDS011;54998;42.656;23.382;2022-07-29T15:34:08;6.18;;;4.80;;
68178;SDS011;54998;42.656;23.382;2022-07-29T15:36:34;5.40;;;4.63;;
68178;SDS011;54998;42.656;23.382;2022-07-29T15:38:59;5.68;;;4.75;;
68178;SDS011;54998;42.656;23.382;2022-07-29T15:41:24;5.65;;;4.50;;
68178;SDS011;54998;42.656;23.382;2022-07-29T16:14:15;5.30;;;4.60;;
68178;SDS011;54998;42.656;23.382;2022-07-29T16:16:41;5.60;;;4.32;;
68178;SDS011;54998;42.656;23.382;2022-07-29T16:19:07;5.68;;;4.40;;
68178;SDS011;54998;42.656;23.382;2022-07-29T16:21:33;5.22;;;4.60;;
68178;SDS011;54998;42.656;23.382;2022-07-29T16:24:00;6.45;;;4.93;;
68178;SDS011;54998;42.656;23.382;2022-07-29T16:26:26;12.13;;;4.97;;
68178;SDS011;54998;42.656;23.382;2022-07-29T16:28:52;5.85;;;4.60;;
68178;SDS011;54998;42.656;23.382;2022-07-29T16:31:17;5.75;;;4.72;;
68178;SDS011;54998;42.656;23.382;2022-07-29T16:33:46;10.20;;;5.50;;
68178;SDS011;54998;42.656;23.382;2022-07-29T16:36:16;6.22;;;5.03;;
68178;SDS011;54998;42.656;23.382;2022-07-29T16:38:42;6.32;;;5.20;;
68178;SDS011;54998;42.656;23.382;2022-07-29T16:41:07;5.50;;;4.82;;
68178;SDS011;54998;42.656;23.382;2022-07-29T16:43:33;11.32;;;5.35;;
68178;SDS011;54998;42.656;23.382;2022-07-29T16:45:58;5.47;;;4.97;;
68178;SDS011;54998;42.656;23.382;2022-07-29T16:48:24;6.65;;;4.90;;
68178;SDS011;54998;42.656;23.382;2022-07-29T16:50:49;6.75;;;4.82;;
68178;SDS011;54998;42.656;23.382;2022-07-29T16:53:15;6.53;;;4.70;;
68178;SDS011;54998;42.656;23.382;2022-07-29T16:55:40;5.93;;;4.40;;
68178;SDS011;54998;42.656;23.382;2022-07-29T16:58:06;6.97;;;4.63;;
68178;SDS011;54998;42.656;23.382;2022-07-29T17:00:31;5.32;;;4.65;;
68178;SDS011;54998;42.656;23.382;2022-07-29T17:02:57;6.35;;;4.85;;
68178;SDS011;54998;42.656;23.382;2022-07-29T17:05:24;9.60;;;5.10;;
68178;SDS011;54998;42.656;23.382;2022-07-29T17:07:50;8.00;;;5.03;;
68178;SDS011;54998;42.656;23.382;2022-07-29T17:10:16;6.43;;;4.63;;
68178;SDS011;54998;42.656;23.382;2022-07-29T17:12:41;6.40;;;4.78;;
68178;SDS011;54998;42.656;23.382;2022-07-29T17:15:08;5.60;;;4.32;;
68178;SDS011;54998;42.656;23.382;2022-07-29T17:17:35;7.57;;;5.22;;
68178;SDS011;54998;42.656;23.382;2022-07-29T17:20:00;7.15;;;4.45;;
68178;SDS011;54998;42.656;23.382;2022-07-29T17:22:26;5.68;;;4.30;;
68178;SDS011;54998;42.656;23.382;2022-07-29T17:24:51;5.97;;;4.18;;
68178;SDS011;54998;42.656;23.382;2022-07-29T17:27:17;5.18;;;3.92;;
68178;SDS011;54998;42.656;23.382;2022-07-29T17:29:43;5.65;;;4.25;;
68178;SDS011;54998;42.656;23.382;2022-07-29T17:32:10;5.75;;;4.22;;
68178;SDS011;54998;42.656;23.382;2022-07-29T17:34:36;4.65;;;3.92;;
68178;SDS011;54998;42.656;23.382;2022-07-29T17:37:04;6.47;;;4.85;;
68178;SDS011;54998;42.656;23.382;2022-07-29T17:39:31;6.53;;;4.30;;
68178;SDS011;54998;42.656;23.382;2022-07-29T17:41:59;6.47;;;4.63;;
68178;SDS011;54998;42.656;23.382;2022-07-29T17:44:24;5.47;;;4.65;;
68178;SDS011;54998;42.656;23.382;2022-07-29T17:46:50;5.00;;;4.50;;
68178;SDS011;54998;42.656;23.382;2022-07-29T17:49:15;6.45;;;4.22;;
68178;SDS011;54998;42.656;23.382;2022-07-29T17:51:41;5.10;;;4.35;;
68178;SDS011;54998;42.656;23.382;2022-07-29T17:54:06;5.80;;;4.55;;
68178;SDS011;54998;42.656;23.382;2022-07-29T17:56:31;8.32;;;5.68;;
68178;SDS011;54998;42.656;23.382;2022-07-29T17:58:57;6.68;;;5.10;;
68178;SDS011;54998;42.656;23.382;2022-07-29T18:01:25;8.20;;;5.85;;
68178;SDS011;54998;42.656;23.382;2022-07-29T18:03:51;8.48;;;4.88;;
68178;SDS011;54998;42.656;23.382;2022-07-29T18:06:17;7.05;;;4.50;;
68178;SDS011;54998;42.656;23.382;2022-07-29T18:08:42;5.40;;;4.15;;
68178;SDS011;54998;42.656;23.382;2022-07-29T18:11:11;6.35;;;4.65;;
68178;SDS011;54998;42.656;23.382;2022-07-29T18:13:37;8.45;;;4.88;;
68178;SDS011;54998;42.656;23.382;2022-07-29T18:16:03;10.10;;;5.10;;
68178;SDS011;54998;42.656;23.382;2022-07-29T18:18:28;5.72;;;4.25;;
68178;SDS011;54998;42.656;23.382;2022-07-29T18:20:54;6.35;;;4.45;;
68178;SDS011;54998;42.656;23.382;2022-07-29T18:23:22;6.90;;;4.63;;
68178;SDS011;54998;42.656;23.382;2022-07-29T18:25:53;5.32;;;4.32;;
68178;SDS011;54998;42.656;23.382;2022-07-29T18:28:43;5.68;;;4.53;;
68178;SDS011;54998;42.656;23.382;2022-07-29T18:31:38;8.63;;;4.85;;
68178;SDS011;54998;42.656;23.382;2022-07-29T18:34:05;6.38;;;3.95;;
68178;SDS011;54998;42.656;23.382;2022-07-29T18:36:40;5.72;;;4.75;;
68178;SDS011;54998;42.656;23.382;2022-07-29T18:39:06;5.53;;;4.30;;
68178;SDS011;54998;42.656;23.382;2022-07-29T18:41:34;5.72;;;4.25;;
68178;SDS011;54998;42.656;23.382;2022-07-29T18:44:00;7.32;;;4.50;;
68178;SDS011;54998;42.656;23.382;2022-07-29T18:46:25;5.47;;;4.28;;
68178;SDS011;54998;42.656;23.382;2022-07-29T18:48:51;6.93;;;4.60;;
68178;SDS011;54998;42.656;23.382;2022-07-29T18:51:16;6.70;;;4.63;;
68178;SDS011;54998;42.656;23.382;2022-07-29T18:53:42;7.13;;;5.38;;
68178;SDS011;54998;42.656;23.382;2022-07-29T18:56:07;6.13;;;4.50;;
68178;SDS011;54998;42.656;23.382;2022-07-29T18:58:32;6.55;;;4.20;;
68178;SDS011;54998;42.656;23.382;2022-07-29T19:00:58;6.43;;;4.57;;
68178;SDS011;54998;42.656;23.382;2022-07-29T19:03:24;6.00;;;4.47;;
68178;SDS011;54998;42.656;23.382;2022-07-29T19:05:50;5.43;;;4.47;;
68178;SDS011;54998;42.656;23.382;2022-07-29T19:08:15;6.55;;;4.80;;
68178;SDS011;54998;42.656;23.382;2022-07-29T19:10:41;5.10;;;4.18;;
68178;SDS011;54998;42.656;23.382;2022-07-29T19:13:06;5.30;;;4.07;;
68178;SDS011;54998;42.656;23.382;2022-07-29T19:15:32;6.30;;;4.20;;
68178;SDS011;54998;42.656;23.382;2022-07-29T19:17:57;5.30;;;4.28;;
68178;SDS011;54998;42.656;23.382;2022-07-29T19:20:23;5.07;;;4.28;;
68178;SDS011;54998;42.656;23.382;2022-07-29T19:22:48;5.32;;;4.75;;
68178;SDS011;54998;42.656;23.382;2022-07-29T19:25:14;5.25;;;4.20;;
68178;SDS011;54998;42.656;23.382;2022-07-29T19:27:39;7.50;;;4.43;;
68178;SDS011;54998;42.656;23.382;2022-07-29T19:30:05;5.47;;;3.97;;
68178;SDS011;54998;42.656;23.382;2022-07-29T19:32:33;6.50;;;4.20;;
68178;SDS011;54998;42.656;23.382;2022-07-29T19:34:58;6.53;;;4.18;;
68178;SDS011;54998;42.656;23.382;2022-07-29T19:37:42;5.65;;;4.22;;
68178;SDS011;54998;42.656;23.382;2022-07-29T19:40:08;6.10;;;4.65;;
68178;SDS011;54998;42.656;23.382;2022-07-29T19:42:36;4.80;;;4.07;;
68178;SDS011;54998;42.656;23.382;2022-07-29T19:45:01;5.95;;;4.13;;
68178;SDS011;54998;42.656;23.382;2022-07-29T19:47:27;6.75;;;4.35;;
68178;SDS011;54998;42.656;23.382;2022-07-29T19:49:52;6.60;;;4.70;;
68178;SDS011;54998;42.656;23.382;2022-07-29T19:52:17;5.32;;;4.13;;
68178;SDS011;54998;42.656;23.382;2022-07-29T19:54:43;5.88;;;4.53;;